Terminal Aerodrome Forecast
Issued by NWS Jacksonville, FL

Home | Current Version | Previous Version | Text Only | Print | Product List | Glossary On
Versions: 1 2 3 4 5 6 7 8 9 10 11 12 13 14 15 16 17 18 19 20 21 22 23 24 25 26 27 28
587
FTUS42 KJAX 301313 AAC
TAFJAX
TAF AMD
KJAX 301313Z 3013/0112 13010KT P6SM BKN250
     FM301900 13013KT P6SM SCT045 SCT250
     FM010400 15004KT P6SM SCT060 SCT250
     FM010800 VRB02KT P6SM SCT040 SCT250=

USA.gov is the U.S. government's official web portal to all federal, state and local government web resources and services.